Airfield :
LOGIN :

Register | Disclaimer

   EN    FR    IT 

 










Legend :    VFR   Marginal VFR   IFR   Intensive IFR   Very Intensive IFR
Visi :
Ceiling :
>= 8 km
>= 3000ft
5 to 8 km
1000 to 3000 ft
1500m to 5 km
500 to 1000 ft
800 to 1500m
200 to 500 ft
< 800m
< 200 ft
Symbols :   Thunderstorms  Fog  Heavy snow  Heavy precipitations  Wind > 20 kt
SIGMETs :     Misc.  Thunderstorms  Icing  Turbulence  Mountain Waves  Volcanic Ashes






- Airport Elevation : 135 ft
- IATA code : BOJ


LBBG - Burgas

CURRENT METAR :
  • 091830Z 01003KT CAVOK 08/M02 Q1019 NOSIG

EXPIRED METARs :
  • 091800Z 01006KT 250V040 CAVOK 07/M01 Q1019 NOSIG
  • 091730Z 06009KT CAVOK 09/M00 Q1018 NOSIG
  • 091700Z 06008KT CAVOK 09/01 Q1018 NOSIG
  • 091630Z 04007KT CAVOK 11/02 Q1018 NOSIG
  • 091600Z 03007KT CAVOK 12/02 Q1018 NOSIG
  • 091530Z 10007KT CAVOK 13/M01 Q1019 NOSIG

TAF TAF LBBG
Valid from the 09 at 18:00 until the 10 at 18:00 UTC


091700Z 0918/1018 VRB04KT CAVOK
BECMG 1008/1010 12010KT



MET'MAP, your aeronautical weather chart ! - Copyright ORBIFLY December 2007 - Disclaimer

ORBIFLY MET'MAP TEAM :

Programming & Development : Alexandra Zaïnal
Concept & original design : Baudouin d'Aumeries
Assistance for programming : Marc-Olivier Méhu
Technical & hardware support : Manuel Goepfert

Contact : metmap@orbifly.com




SOURCES & CREDITS :

   NOAA